x

8454049 - Quonset Point, Ri (qptr1) Weather Station

7:18am - Fri 6th Mar 2015 All times are EST. -5 hours from GMT.

  • Wind
    9mph, 10mph gusts
  • Sea Temp 30°f
  • 空気 Temp 11°f
  • Sea Pressure 1032.1mb
  • 8454049 - Quonset Point, Ri
  • 8454049 - Quonset Point, Ri

More Historic Weather Station data

Upgrade to MSW Pro to gain access to the past 30 days of data for over 8000 Wavebouys and Weather Stations around the globe.

Join Pro

Comparision Forecast

View Surf forecast
   
Fri 03/06 7:18am 9 10 mph 1032.1mb 30f 11f
7:12am 7 10 mph 1032.1mb 30f 12f
7:06am 8 11 mph 1032mb 30f 11f
7:00am 8 10 mph 1031.9mb 30f 11f
6:54am 9 10 mph 1031.9mb 30f 10f
6:48am 7 9 mph 1031.8mb 30f 10f
6:42am 7 9 mph 1031.8mb 30f 10f
6:36am 8 10 mph 1031.8mb 30f 10f
6:30am 8 13 mph 1031.6mb 30f 11f
6:24am 10 11 mph 1031.5mb 30f 10f
6:18am 8 11 mph 1031.4mb 30f 11f
6:12am 9 11 mph 1031.3mb 30f 10f
6:06am 8 10 mph 1031.3mb 30f 10f
6:00am 9 10 mph 1031.3mb 30f 10f
5:54am 9 11 mph 1031.2mb 30f 10f
5:48am 9 13 mph 1031.1mb 30f 11f
5:42am 10 14 mph 1031.1mb 30f 11f
5:36am 11 16 mph 1030.9mb 31f 11f
5:30am 11 16 mph 1030.8mb 31f 12f
5:24am 14 16 mph 1030.6mb 31f 12f
5:18am 10 15 mph 1030.5mb 31f 12f
5:12am 14 17 mph 1030.3mb 31f 12f
5:06am 14 18 mph 1030.3mb 31f 12f
5:00am 14 18 mph 1030.1mb 31f 12f
4:54am 16 21 mph 1029.8mb 31f 12f
4:48am  -  mph 1029.8mb 31f -
4:42am  -  mph 1029.7mb 31f -
4:36am  -  mph 1029.6mb 31f -
4:30am 11 15 mph 1029.6mb 31f 13f
4:24am 14 20 mph 1029.5mb 31f 13f
4:18am 15 18 mph 1029.5mb 31f 14f
4:12am 16 20 mph 1029.4mb 31f 14f
4:06am 11 16 mph 1029.3mb 31f 14f
4:00am 14 17 mph 1029.1mb 31f 14f
3:54am 9 13 mph 1029.1mb 31f 13f
3:48am  -  mph 1029mb 31f 14f
3:42am  -  mph 1028.8mb 31f 14f
3:36am  -  mph 1028.7mb 31f 15f
3:30am 15 21 mph 1028.6mb 31f 15f
3:24am 15 18 mph 1028.5mb 31f 16f
3:18am 11 16 mph 1028.4mb 31f 16f
3:12am 13 17 mph 1028.3mb 31f 16f
3:06am 14 20 mph 1028.2mb 31f 16f
3:00am 15 21 mph 1028.1mb 31f 16f
2:54am 15 21 mph 1028.1mb 31f 16f
2:48am 11 16 mph 1028mb 31f 16f
2:42am 15 21 mph 1028mb 31f 17f
2:36am 13 16 mph 1028mb 31f 16f
2:30am 13 16 mph 1027.9mb 31f 17f
2:24am 9 14 mph 1027.9mb 31f 17f
2:18am 11 15 mph 1027.9mb 31f 17f
2:12am 11 16 mph 1027.8mb 31f 17f
2:06am 13 14 mph 1027.8mb 31f 17f
2:00am  -  mph 1027.8mb - -
1:54am  -  mph 1027.8mb - -
1:48am 11 16 mph 1027.7mb 31f -
1:42am 14 17 mph 1027.5mb 31f -
1:36am 14 18 mph 1027.4mb 31f -
1:30am 11 15 mph 1027.3mb 31f 18f
1:24am 11 16 mph 1027.3mb 31f 19f
1:18am 14 18 mph 1027.3mb 31f 19f
1:12am 14 18 mph 1027.1mb 31f 19f
1:06am 13 18 mph 1027mb 31f 19f
1:00am 13 17 mph 1026.6mb 31f 20f
12:54am 10 15 mph 1026.7mb 31f 20f
12:48am 11 18 mph 1026.6mb 31f 20f
12:42am 9 14 mph 1026.6mb 31f 20f
12:36am 9 11 mph 1026.4mb 31f 20f
12:30am 9 14 mph 1026.2mb 31f 20f
12:24am 10 14 mph 1026.1mb 31f 20f
12:18am 10 14 mph 1025.9mb 31f 20f
12:12am 11 16 mph 1025.9mb 31f 20f
12:06am 13 17 mph 1025.8mb 31f 21f
12:00am 11 16 mph 1025.8mb 31f 21f
Thu 03/05 11:54pm 13 17 mph 1025.6mb 31f 21f
11:48pm 11 14 mph 1025.6mb 31f 21f
11:42pm 7 10 mph 1025.4mb 31f 21f
11:36pm 7 8 mph 1025.3mb 31f 21f
11:30pm 7 9 mph 1025.4mb 31f 21f
11:24pm 8 13 mph 1025.4mb 31f 21f
11:18pm 10 14 mph 1025.2mb 31f 21f
11:12pm 11 16 mph 1025.4mb 31f 21f
11:06pm 13 17 mph 1025.1mb 31f 22f
11:00pm 10 14 mph 1024.7mb 31f 21f
10:54pm 14 18 mph 1025.1mb 31f 22f
10:48pm 9 13 mph 1024.9mb 31f 22f
10:42pm 11 16 mph 1024.7mb 31f 22f
10:36pm 9 11 mph 1024.8mb 31f 22f
10:30pm 8 13 mph 1024.8mb 31f 22f
10:24pm 9 13 mph 1024.8mb 31f 22f
10:18pm 11 16 mph 1024.9mb 31f 23f
10:12pm 10 15 mph 1024.8mb 31f 23f
10:06pm 9 13 mph 1024.7mb 31f 23f
10:00pm 8 11 mph 1024.8mb 31f 23f
9:54pm 10 13 mph 1024.8mb 31f 23f
9:48pm 9 13 mph 1024.4mb 31f 23f
9:42pm 8 10 mph 1024.2mb 31f 23f
9:36pm 9 11 mph 1024mb 31f 24f
9:30pm 7 9 mph 1023.8mb 31f 23f
9:24pm 8 11 mph 1023.9mb 31f 24f
9:18pm 7 9 mph 1023.7mb 31f 23f
9:12pm 6 8 mph 1023.4mb 31f 23f
9:06pm 6 8 mph 1023.3mb 31f 23f
9:00pm 6 9 mph 1023.5mb 31f 23f
8:54pm 7 9 mph 1022.9mb 31f 23f
8:48pm 7 9 mph 1022.9mb 31f 23f
8:42pm 7 9 mph 1023mb 31f 23f
8:36pm 6 11 mph 1022.9mb 31f 23f
8:30pm 7 9 mph 1022.9mb 31f 23f
8:24pm 6 7 mph 1023.1mb 31f 23f
8:18pm 6 7 mph 1022.8mb 31f 22f
8:12pm 6
mph
1022.7mb 31f 22f
8:06pm 5 6 mph 1022.3mb 31f 22f
8:00pm 5 6 mph 1022.3mb 31f 22f
7:54pm 6
mph
1022.7mb 31f 22f
7:48pm 5 6 mph 1022.2mb 31f 22f
7:42pm 5 6 mph 1022.2mb 31f 22f
7:36pm 5 6 mph 1022.3mb 31f 22f
7:30pm 3 5 mph 1022.4mb 31f 22f
7:24pm 3 6 mph 1022.3mb 31f 22f
7:18pm 3 5 mph 1022.3mb 31f 22f
7:12pm 3 5 mph 1022mb 31f 22f
7:06pm 5 7 mph 1022.1mb 31f 22f
7:00pm 5 9 mph 1021.9mb 31f 22f
6:54pm 7 10 mph 1022mb 31f 22f
6:48pm 6 8 mph 1022mb 31f 22f
6:42pm 7 8 mph 1022.1mb 31f 22f
6:36pm 7 8 mph 1021.5mb 31f 22f
6:30pm 5 7 mph 1021.2mb 31f 22f
6:24pm 7 9 mph 1020.9mb 31f 22f
6:18pm 8 10 mph 1021.3mb 31f 22f
6:12pm 6 8 mph 1021.6mb 31f 23f
6:06pm 8 11 mph 1021.5mb 31f 22f
6:00pm 9 11 mph 1021.3mb 31f 22f
5:54pm 9 11 mph 1020.7mb 31f 22f
5:48pm 7 9 mph 1020.7mb 31f 23f
5:42pm 7 9 mph 1020.6mb 31f 23f
5:36pm 6 7 mph 1020.6mb 31f 23f
5:30pm 6 7 mph 1020.5mb 31f 23f
5:24pm 5 6 mph 1020.6mb 31f 24f
5:18pm 3
mph
1020.6mb 31f 24f
5:12pm 2 3 mph 1020.7mb 31f 23f
5:06pm 3
mph
1020.6mb 31f 23f
5:00pm 3
mph
1020.6mb 31f 24f
4:54pm 3
mph
1020.2mb 31f 24f
4:48pm 3 5 mph 1019.9mb 31f 24f
4:42pm 3 5 mph 1019.8mb 31f 24f
4:36pm 3 5 mph 1019.9mb 31f 24f
4:30pm 3 5 mph 1019.9mb 31f 24f
4:24pm 2 3 mph 1020.3mb 31f 24f
4:18pm 2 3 mph 1020.6mb 31f 24f
4:12pm 2 3 mph 1020.5mb 31f 24f
4:06pm 5 6 mph 1020.2mb 31f 24f
4:00pm 5 6 mph 1020mb 31f 24f
3:54pm 3 5 mph 1019.9mb 31f 24f
3:48pm 5
mph
1019.9mb 31f 24f
3:42pm 3 5 mph 1019.9mb 31f 24f
3:36pm 3 5 mph 1019.8mb 31f 24f
3:30pm 5 7 mph 1019.7mb 31f 24f
3:24pm 6 7 mph 1019.7mb 31f 24f
3:18pm 6 7 mph 1020.1mb 31f 24f
3:12pm 7 10 mph 1020.2mb 31f 24f
3:06pm 8 11 mph 1020mb 31f 24f
3:00pm 9 11 mph 1019.6mb 31f 24f
2:54pm 10 14 mph 1019.4mb 31f 24f
2:48pm 10 13 mph 1019.3mb 31f 24f
2:42pm 7 10 mph 1019.2mb 31f 24f
2:36pm 6 10 mph 1019.1mb 31f 25f
2:30pm 9 11 mph 1018.8mb 31f 24f
2:24pm 11 13 mph 1018mb 31f 24f
2:18pm 10 11 mph 1018.7mb 31f 24f
2:12pm 9 10 mph 1019.6mb 31f 24f
2:06pm 9 10 mph 1019.5mb 31f 25f
2:00pm 8 11 mph 1019.2mb 31f 25f
1:54pm 7 10 mph 1019mb 31f 25f
1:48pm 7 10 mph 1019.1mb 31f 25f
1:42pm 9 11 mph 1019.1mb 31f 25f
1:36pm 11 14 mph 1019.3mb 31f 25f
1:30pm 13 15 mph 1019.1mb 31f 25f
1:24pm 10 16 mph 1019.4mb 31f 25f
1:18pm 14 16 mph 1019.2mb 31f 25f
1:12pm 14 17 mph 1019.5mb 31f 25f
1:06pm 15 18 mph 1019.3mb 31f 25f
1:00pm 10 14 mph 1019.1mb 31f 25f
12:54pm 8 11 mph 1019mb 31f 25f
12:48pm 7 9 mph 1018.6mb 31f 26f
12:42pm 9 11 mph 1018.7mb 31f 26f
12:36pm 7 10 mph 1018.7mb 31f 26f
12:30pm 8 11 mph 1018.3mb 31f 26f
12:24pm 9 13 mph 1018.2mb 31f 26f
12:18pm 8 11 mph 1017.9mb 31f 26f
12:12pm 9 13 mph 1017.7mb 31f 26f
12:06pm 10 11 mph 1017.5mb 31f 26f
12:00pm 7 8 mph 1017.6mb 31f 26f
11:54am 7 9 mph 1017.7mb 31f 26f
11:48am 9 10 mph 1017.6mb 31f 26f
11:42am 8 11 mph 1017.9mb 31f 26f
11:36am 8 15 mph 1018.1mb 31f 26f
11:30am 8 11 mph 1018.1mb 31f 26f
11:24am 11 15 mph 1018.2mb 31f 26f
11:18am 11 14 mph 1018.3mb 31f 26f
11:12am 10 15 mph 1018.3mb 31f 27f
11:06am 11 15 mph 1018.5mb 31f 27f
11:00am 11 15 mph 1018.3mb 31f 27f
10:54am 15 18 mph 1018.3mb 31f 27f
10:48am 13 20 mph 1018.4mb 31f 27f
10:42am 14 17 mph 1018.7mb 31f 27f
10:36am 13 21 mph 1018.6mb 31f 27f
10:30am 16 18 mph 1018.4mb 31f 28f
10:24am 15 17 mph 1018mb 31f 28f
10:18am 15 21 mph 1018.2mb 31f 28f
10:12am 13 16 mph 1018mb 31f 28f
10:06am 13 17 mph 1017.7mb 31f 28f
10:00am 13 16 mph 1017.8mb 31f 28f
9:54am 11 16 mph 1018mb 31f 29f
9:48am 13 16 mph 1018.2mb 31f 29f
9:42am 10 15 mph 1018.3mb 31f 29f
9:36am 9 14 mph 1018mb 31f 30f
9:30am 9 13 mph 1017.8mb 31f 30f
9:24am 14 16 mph 1017.4mb 31f 30f
9:18am 11 13 mph 1017.3mb 31f 30f
9:12am 8 10 mph 1017.4mb 31f 30f
9:06am 7 8 mph 1017.3mb 31f 31f
9:00am 6 11 mph 1017.5mb 31f 31f
8:54am 7 9 mph 1017.4mb 31f 31f
8:48am 6 8 mph 1017.2mb 31f 31f
8:42am 6 8 mph 1016.9mb 31f 31f
8:36am 5 7 mph 1017.1mb 31f 31f
8:30am 5 6 mph 1017mb 31f 31f
8:24am 5 7 mph 1017mb 31f 31f
8:18am 6 8 mph 1016.8mb 31f 31f
8:12am 6 8 mph 1016.8mb 31f 31f
8:06am 7 9 mph 1016.5mb 31f 31f
8:00am 5 7 mph 1016.5mb 31f 31f
7:54am 5 7 mph 1016.2mb 31f 31f
7:48am 5 7 mph 1016.3mb 31f 31f
7:42am 6 8 mph 1016.3mb 31f 31f
7:36am 6 7 mph 1016.1mb 31f 31f
7:30am 6 8 mph 1016mb 31f 31f
7:24am 6 8 mph 1015.9mb 31f 31f
7:18am 5 6 mph 1015.6mb 31f 31f
7:12am 6 8 mph 1015.6mb 31f 31f
7:06am 6 8 mph 1015.5mb 31f 31f
7:00am 6 10 mph 1015.7mb 31f 31f
6:54am 8 10 mph 1015.3mb 31f 31f
6:48am 8 13 mph 1015.4mb 31f 31f
6:42am 8 13 mph 1015.2mb 31f 31f
6:36am 11 17 mph 1014.8mb 31f 31f
6:30am 13 18 mph 1015mb 31f 31f
6:24am 10 14 mph 1015mb 31f 31f
6:18am 7 14 mph 1015.1mb 31f 32f
6:12am 8 16 mph 1015.2mb 31f 32f
6:06am 5 6 mph 1015.1mb 31f 32f
6:00am 5 7 mph 1015mb 31f 32f
5:54am 6 9 mph 1014.9mb 31f 32f
5:48am 7 9 mph 1015.1mb 31f 32f
5:42am 8 13 mph 1015.1mb 31f 32f
5:36am 11 15 mph 1014.8mb 31f 32f
5:30am 11 16 mph 1014.5mb 31f 33f
5:24am 6 14 mph 1014.6mb 31f 33f
5:18am 6 11 mph 1014.5mb 31f 33f
5:12am 6 9 mph 1014.3mb 31f 33f
5:06am 6 8 mph 1014mb 31f 33f
5:00am 6 8 mph 1013.7mb - 33f
4:54am 3 6 mph 1013.2mb - 33f
4:48am  -  mph 1012.8mb - -
4:42am  -  mph 1012.7mb - -
4:36am  -  mph 1012.7mb - -
4:30am 6 8 mph 1012.6mb 31f 33f
4:24am 7 11 mph 1012.8mb 31f 33f
4:18am 9 13 mph 1012.3mb 31f 34f
4:12am 6 11 mph 1012.7mb 31f 34f
4:06am 8 13 mph 1013mb 31f 34f
4:00am 10 14 mph 1012.8mb 31f 34f
3:54am 8 10 mph 1012.8mb 31f 35f
3:48am 8 10 mph - 31f 35f
3:42am 6 8 mph - 31f 35f
3:36am 6 9 mph - 31f 35f
3:30am 6 8 mph 1011.7mb 31f 36f
3:24am 3 6 mph 1011.8mb 31f 35f
3:18am 5 7 mph 1011.7mb 31f 36f
3:12am 7 9 mph 1011.6mb 31f 36f
3:06am 6 7 mph 1011.3mb 31f 36f
3:00am 6 8 mph 1011.1mb 31f 37f
2:54am 6 8 mph 1011mb 31f 37f
2:48am 5 7 mph 1011mb 31f 37f
2:42am 7 9 mph 1011mb 31f 38f
2:36am 5 7 mph 1011mb 31f 38f
2:30am 5 7 mph 1011mb 31f 37f
2:24am 3
mph
1011.1mb 31f 36f
2:18am 1 3 mph 1011.1mb - -
2:12am 2 3 mph 1011mb - 35f
2:06am 2 5 mph 1010.9mb - 37f
2:00am 5
mph
- 31f 37f
1:54am 5
mph
- 31f 38f
1:48am 5
mph
1010.9mb 31f 38f
1:42am 3
mph
1011.1mb 31f 38f
1:36am 3 5 mph 1011.1mb 31f 38f
1:30am 3 5 mph 1011.1mb 31f 38f
1:24am 5
mph
1011mb 31f 38f
1:18am 5
mph
1010.9mb 31f 38f
1:12am 5 6 mph 1011mb 31f 38f
1:06am 6
mph
1010.8mb 31f 38f
1:00am 6
mph
1011mb 31f 37f
12:54am 6
mph
1011.1mb 31f 38f
12:48am 6
mph
1010.8mb 31f 37f
12:42am 6
mph
1010.8mb 31f 38f
12:36am 6
mph
1010.9mb 31f 37f
12:30am 6
mph
1010.9mb 31f 37f
12:24am 5
mph
1010.9mb 31f 38f
12:18am 3 5 mph 1011mb 31f 38f
12:12am 3
mph
1011.2mb 31f 37f
12:06am 3
mph
1011.3mb 31f 37f
12:00am 3
mph
1011.3mb 31f 37f
Wed 03/04 11:54pm 3 6 mph 1011.4mb 31f 37f
11:48pm 5 7 mph 1011.4mb 31f 38f
11:42pm 6 7 mph 1011.3mb 31f 38f
11:36pm 6 7 mph 1011.4mb 31f 38f
11:30pm 6
mph
1011.4mb 31f 38f
11:24pm 6
mph
1011.4mb 31f 38f
11:18pm 6 7 mph 1011.3mb 31f 38f
11:12pm 6 7 mph 1011.4mb 31f 38f
11:06pm 7
mph
1011.3mb 31f 38f
11:00pm 7
mph
1011.2mb 31f 38f
10:54pm 7
mph
1011.2mb 31f 38f
10:48pm 7 8 mph 1011.3mb 31f 38f
10:42pm 8 9 mph 1011.4mb 31f 38f
10:36pm 9 10 mph 1011.3mb 31f 38f
10:30pm 8 9 mph 1011.4mb 31f 37f
10:24pm 8 9 mph 1011.4mb 31f 38f
10:18pm 8
mph
1011.5mb 31f 38f
10:12pm 7 8 mph 1011.4mb 31f 38f
10:06pm 6 7 mph 1011.4mb 31f 37f
10:00pm 6 7 mph 1011.6mb 31f 37f
9:54pm 6 7 mph 1011.6mb 31f 37f
9:48pm 7 8 mph 1011.2mb 31f 38f
9:42pm 8
mph
1011.1mb 31f 38f
9:36pm 7 8 mph 1011.2mb 31f 38f
9:30pm 7 8 mph 1011.2mb 31f 37f
9:24pm 7 8 mph 1011.2mb 31f 37f
9:18pm 7 8 mph 1011.3mb 31f 37f
9:12pm 7 8 mph 1011.1mb 31f 37f
9:06pm 7 8 mph 1010.7mb 31f 38f
9:00pm 8
mph
1010.6mb 31f 38f
8:54pm 7 9 mph 1010.6mb 31f 38f
8:48pm 7 8 mph 1010.3mb 31f 38f
8:42pm 8 9 mph 1010.4mb 32f 38f
8:36pm 7 8 mph 1010.1mb 32f 37f
8:30pm 7 8 mph 1010.1mb 32f 37f
8:24pm 5 7 mph 1010mb 32f 36f
8:18pm 6 8 mph 1009.9mb 32f 37f
8:12pm 7 8 mph 1010.1mb 32f 36f
8:06pm 7 8 mph 1010mb 32f 36f
8:00pm 7 8 mph 1010mb 32f 36f
7:54pm 7 8 mph 1010.2mb 32f 36f
7:48pm 7 8 mph 1010.2mb 32f 36f
7:42pm 7
mph
1010.3mb 32f 36f
7:36pm 7
mph
1010.6mb 32f 36f
7:30pm 7 8 mph 1010.7mb 32f 38f
7:24pm 6 7 mph 1010.8mb 32f 38f
7:18pm 3 5 mph 1011mb 32f 38f
7:12pm 3 5 mph 1011.4mb 32f 38f
7:06pm 2 3 mph 1011.5mb 32f 37f
7:00pm 3 6 mph 1011.3mb 32f 37f
6:54pm 3 7 mph 1011.1mb 32f 38f
6:48pm 6 7 mph 1010.9mb 32f 38f
6:42pm 6 7 mph 1010.7mb 32f 38f
6:36pm 6 8 mph 1011mb 32f 38f
6:30pm 7 8 mph 1010.8mb 32f 38f
6:24pm 7 9 mph 1010.8mb 32f 38f
6:18pm 8 9 mph 1011mb 32f 38f
6:12pm 8 9 mph 1010.2mb 32f 38f
6:06pm 6 7 mph 1010.3mb 32f 38f
6:00pm 6 7 mph 1010mb 32f 38f
5:54pm 6 8 mph 1009.7mb 32f 38f
5:48pm 8 9 mph 1010.1mb 32f 38f
5:42pm 8 11 mph 1010.3mb 32f 38f
5:36pm 9 10 mph 1010.1mb 32f 39f
5:30pm 10 11 mph 1010.2mb 32f 39f
5:24pm 10 11 mph 1010mb 32f 38f
5:18pm 10 11 mph 1010mb 32f 38f
5:12pm 11
mph
1010mb 32f 39f
5:06pm 10 11 mph 1010.2mb 32f 38f
5:00pm 9 10 mph 1010.2mb 32f 40f
4:54pm 6 7 mph 1010.2mb 32f 40f
4:48pm 6
mph
1010.2mb 32f 41f
4:42pm 6
mph
1010mb 32f 40f
4:36pm 5 6 mph 1009.9mb 32f 37f
4:30pm 5 6 mph 1009.9mb 32f 38f
4:24pm 5 8 mph 1009.6mb 32f 43f
4:18pm 6 8 mph 1009.7mb 32f 43f
4:12pm 5 8 mph 1009.9mb 32f 42f
4:06pm 6 8 mph 1009.9mb 32f 39f
4:00pm 3 9 mph 1009.6mb 31f 39f
3:54pm 8 14 mph 1009.3mb 31f 43f
3:48pm 8 10 mph 1009mb 32f 42f
3:42pm 7 8 mph 1008.9mb 32f 41f
3:36pm 6 8 mph 1008.8mb 32f 43f
3:30pm 5 6 mph 1008.3mb 32f 43f
3:24pm 2 6 mph 1008.2mb 32f 44f
3:18pm 5 11 mph 1008.3mb 32f 44f
3:12pm 8 11 mph 1008.6mb 32f 43f
3:06pm 8 11 mph 1008.5mb 32f 43f
3:00pm 6 9 mph 1008.5mb 32f 44f
2:54pm 7 9 mph 1008.8mb 32f 44f
2:48pm 10 14 mph 1008.9mb 32f 44f
2:42pm 8 9 mph 1009mb 32f 44f
2:36pm 6 10 mph 1008.4mb 32f 43f
2:30pm 7 9 mph 1008.7mb 32f 44f
2:24pm 8 10 mph 1008.7mb 31f 44f
2:18pm 6 11 mph 1008.5mb 31f 44f
2:12pm 7 9 mph 1008.9mb 31f 43f
2:06pm 6 14 mph 1008.8mb 31f 43f
2:00pm 9 13 mph 1008.9mb 31f 43f
1:54pm 7 10 mph 1008.4mb 32f 43f
1:48pm 8 13 mph 1008.4mb 32f 43f
1:42pm 8 13 mph 1008.5mb 32f 43f
1:36pm 11 13 mph 1008.7mb 32f 42f
1:30pm 9 11 mph 1009mb 32f 43f
1:24pm 10 13 mph 1009.4mb 32f 41f
1:18pm 9 11 mph 1008.9mb 32f 42f
1:12pm 11 14 mph 1008.7mb 32f 42f
1:06pm 9 11 mph 1008.6mb 32f 42f
1:00pm 7 10 mph 1008.8mb 31f 41f
12:54pm 10 11 mph 1008.8mb 31f 42f
12:48pm 9 10 mph 1008.7mb 31f 42f
12:42pm 8 11 mph 1008.8mb 31f 42f
12:36pm 11 14 mph 1009.3mb 31f 42f
12:30pm 10 13 mph 1009.1mb 31f 42f
12:24pm 13 16 mph 1009.2mb 31f 42f
12:18pm 10 13 mph 1009mb 31f -
12:12pm 9 11 mph 1009.3mb 31f -
12:06pm 11 13 mph 1009.5mb 31f -
12:00pm 10 11 mph 1009.6mb 31f 41f
11:54am 11 14 mph 1009.7mb 31f 41f
11:48am 10 11 mph 1009.7mb 31f 42f
11:42am 9 13 mph 1009.7mb 31f 42f
11:36am 10 13 mph 1009.5mb 31f 42f
11:30am 9 10 mph 1009.5mb 31f 41f
11:24am 8 9 mph 1009.4mb 31f 41f
11:18am 7 10 mph 1009.2mb 31f 40f
11:12am 7 11 mph 1009.3mb 31f 41f
11:06am 6 9 mph 1009.3mb 31f 39f
11:00am 5 6 mph 1009.3mb 31f 39f
10:54am 5 7 mph 1009.4mb 31f 38f
10:48am 7 8 mph 1009mb 31f 39f
10:42am 8 9 mph 1008.9mb 31f 40f
10:36am 7 9 mph 1008.8mb 31f 39f
10:30am 8 9 mph 1009.2mb 31f 40f
10:24am 8 10 mph 1009.4mb 31f 38f
10:18am 9 10 mph 1009.4mb 31f 38f
10:12am 8 10 mph 1009.2mb 31f 38f
10:06am 8 9 mph 1009mb 31f 38f
10:00am 7 8 mph 1008.9mb 31f 38f
9:54am 8 9 mph 1008.8mb 31f 38f
9:48am 6 8 mph 1008.9mb 31f 38f
9:42am 7 8 mph 1008.7mb 31f 38f
9:36am 6 7 mph 1008.7mb 31f 38f
9:30am 7 8 mph 1008.9mb 31f 38f
9:24am 7
mph
1008.8mb 31f 38f
9:18am 6 7 mph 1008.6mb 31f 38f
9:12am 7
mph
1008.5mb 31f 38f
9:06am 6 7 mph 1008.7mb 31f 37f
9:00am 5 6 mph 1008.6mb 31f 37f
8:54am 5 7 mph 1008.7mb 31f 37f
8:48am 6 7 mph 1008.5mb 31f 37f
8:42am 6 7 mph 1008.3mb 31f 37f
8:36am 6 7 mph 1008.2mb 31f 37f
8:30am 6 7 mph 1008mb 31f 37f
8:24am 5 6 mph 1007.9mb 31f 37f
8:18am 3 7 mph 1007.6mb 31f 37f
8:12am 5 7 mph 1007.9mb 31f 37f
8:06am 3 5 mph 1007.9mb 31f 36f
8:00am 3 5 mph 1007.9mb 31f 36f
7:54am 2 3 mph 1007.7mb 31f 36f
7:48am 2 5 mph 1007.3mb 31f 35f
7:42am 5 6 mph 1007.3mb 31f 36f
7:36am 6 7 mph 1007.1mb 31f 36f
7:30am 3 7 mph 1006.8mb 31f 35f
7:24am 7 9 mph 1006.7mb 31f 36f
7:18am 9 10 mph 1006.8mb 31f 36f
7:12am 10 11 mph 1006.8mb 31f 36f
7:06am 10 13 mph 1006.7mb 31f 36f
7:00am 10 14 mph 1006.7mb 31f 36f
6:54am 11 13 mph 1006.8mb 31f 36f
6:48am 11 13 mph 1006.9mb 31f 36f
6:42am 9 13 mph 1006.8mb 31f 35f
6:36am 10 11 mph 1006.9mb 31f 36f
6:30am 10 13 mph 1006.9mb 31f 36f
6:24am 10 13 mph 1006.6mb 31f 36f
6:18am 11 14 mph 1006.6mb 31f 36f
6:12am 13 14 mph 1006.5mb 31f 36f
6:06am 9 13 mph 1006.1mb 31f 36f
6:00am 10 14 mph 1006.5mb 31f 36f
5:54am 11 14 mph 1006.5mb 31f 36f
5:48am 10 13 mph 1006.4mb 31f 36f
5:42am 10 14 mph 1006.4mb 31f 36f
5:36am 11 14 mph 1006.2mb 31f 36f
5:30am 14 15 mph 1006.2mb 31f 36f
5:24am 11 13 mph 1006.2mb 31f 36f
5:18am 10 15 mph 1005.9mb 31f 36f
5:12am 13 14 mph 1005.7mb 31f 37f
5:06am 9 13 mph 1005.6mb 31f 36f
5:00am 11 16 mph 1005.6mb 31f 37f
4:54am 14 16 mph 1005.5mb 31f 37f
4:48am 14 16 mph 1005.3mb 31f 37f
4:42am 11 14 mph 1005.1mb 31f 37f
4:36am 11 15 mph 1005.4mb 31f 37f
4:30am 14 17 mph 1005.7mb 31f 37f
4:24am 11 14 mph 1005.6mb 31f 37f
4:18am 11 17 mph 1005.6mb 31f 37f
4:12am 13 17 mph 1005.7mb 31f 37f
4:06am 14 18 mph 1005.7mb 31f 38f
4:00am 11 14 mph 1005.8mb 31f 38f
3:54am 11 18 mph 1005.7mb 31f 38f
3:48am 13 17 mph 1005.7mb 31f 38f
3:42am 11 18 mph 1005.6mb 31f 38f
3:36am 17 21 mph 1005.7mb 31f 38f
3:30am 17 21 mph 1005.3mb 31f 39f
3:24am 14 18 mph 1005.1mb 31f 39f
3:18am 15 22 mph 1005.1mb 31f 39f
3:12am 16 22 mph 1005.4mb 31f 40f
3:06am 16 24 mph 1005.5mb 31f 39f
3:00am 17 26 mph 1005.6mb 31f 40f
2:54am 23 29 mph 1005.5mb 31f 40f
2:48am 23 29 mph 1005.4mb 31f 41f
2:42am 26 32 mph 1005.3mb 31f 41f
2:36am 22 26 mph 1005.5mb 31f 41f
2:30am 22 26 mph 1005.5mb 31f 41f
2:24am 25 31 mph 1005.5mb 31f 42f
2:18am 25 34 mph 1005.3mb 31f 41f
2:12am 26 32 mph 1005.1mb 31f 41f
2:06am 26 32 mph 1005.9mb 31f 41f
2:00am 22 29 mph 1006.6mb 31f 42f
1:54am 22 28 mph 1006.6mb 31f 42f
1:48am 25 30 mph 1006.3mb 31f 41f
1:42am 24 29 mph 1006.3mb 31f 42f
1:36am 23 30 mph 1006.8mb 31f 42f
1:30am 21 24 mph 1006.9mb 31f 41f
1:24am 22 26 mph 1007.2mb 31f 40f
1:18am 15 20 mph 1007.4mb 31f 38f
1:12am 15 18 mph 1007.3mb 31f 36f
1:06am 16 17 mph 1007.4mb 31f 36f
1:00am 16 18 mph 1007.5mb 31f 36f
12:54am 16 18 mph 1007.7mb 31f 36f
12:48am 16 18 mph 1007.8mb 31f 36f
12:42am 16 17 mph 1008mb 31f 38f
12:36am 15 17 mph 1008.2mb 31f 36f
12:30am 15 16 mph 1008.4mb 31f 36f
12:24am 14 17 mph 1008.5mb 31f 35f
12:18am 16 23 mph 1008.7mb 31f 37f
12:12am 16 20 mph 1009mb 31f 38f
12:06am 17 20 mph 1009.3mb 31f 38f
12:00am 17 21 mph 1009.7mb 31f 38f
Tue 03/03 11:54pm 17 21 mph 1009.8mb 31f 37f
11:48pm 16 22 mph 1009.9mb 31f 36f
11:42pm 18 20 mph 1010.2mb 31f 36f
11:36pm 17 21 mph 1010.4mb 31f 35f
11:30pm 16 17 mph 1010.4mb 31f 35f
11:24pm 15 17 mph 1010.6mb 31f 34f
11:18pm 16 20 mph 1010.7mb 31f 33f
11:12pm 16 21 mph 1011.2mb 31f 33f
11:06pm 16 21 mph 1011.5mb 31f 33f
11:00pm 18 21 mph 1011.6mb 31f 33f
10:54pm 21 22 mph 1011.7mb 31f 33f
10:48pm 21 24 mph 1011.8mb 31f 33f
10:42pm 22 24 mph 1012mb 31f 33f
10:36pm 21 23 mph 1012.6mb 31f 32f
10:30pm 17 21 mph 1013.3mb 31f 32f
10:24pm 20 22 mph 1013.6mb 31f 32f
10:18pm 20 22 mph 1013.7mb 31f 32f
10:12pm 18 22 mph 1013.8mb 31f 32f
10:06pm 18 22 mph 1014.1mb 31f 32f
10:00pm 18 21 mph 1014.3mb 31f 32f
9:54pm 17 18 mph 1014.5mb 31f 32f
9:48pm 17 22 mph 1014.7mb 31f 32f
9:42pm 18 21 mph 1014.7mb 31f 32f
9:36pm 18 21 mph 1015mb 31f 32f
9:30pm 17 20 mph 1015.1mb 31f 32f
9:24pm 16 20 mph 1015.4mb 31f 32f
9:18pm 17 20 mph 1015.6mb 31f 31f
9:12pm 17 21 mph 1016mb 31f 31f
9:06pm 18 21 mph 1016.1mb 31f 31f
9:00pm 17 21 mph 1016.5mb 31f 31f
8:54pm 17 21 mph 1016.4mb 31f 31f
8:48pm 18 20 mph 1016.5mb 31f 31f
8:42pm 17 21 mph 1016.8mb 31f 31f
8:36pm 20 25 mph 1016.8mb 31f 31f
8:30pm 20 22 mph 1017mb 31f 31f
8:24pm 20 22 mph 1017.2mb 31f 31f
8:18pm 22 23 mph 1017.3mb 31f 31f
8:12pm 21 24 mph 1017.3mb 31f 31f
8:06pm 21 24 mph 1017.4mb 31f 31f
8:00pm 20 25 mph 1017.7mb 31f 31f
7:54pm 20 24 mph 1018.1mb 31f 30f
7:48pm 21 24 mph 1018.6mb 31f 30f
7:42pm 20 23 mph 1018.9mb 31f 30f
7:36pm 15 17 mph 1019.3mb 31f 29f
7:30pm 15 18 mph 1019.5mb 31f 29f
7:24pm 16 20 mph 1019.8mb 31f 29f
7:18pm 17 21 mph 1019.9mb 31f 29f
7:12pm 15 18 mph 1020.2mb 31f 28f
7:06pm 13 16 mph 1020.3mb 31f 28f
7:00pm 13 15 mph 1020.6mb 31f 27f
6:54pm 13
mph
1020.8mb 31f 27f
6:48pm 11 14 mph 1021.2mb 31f 27f
6:42pm 10 11 mph 1021.4mb 31f 27f
6:36pm 10 11 mph 1021.3mb 31f 26f
6:30pm 8 10 mph 1021.5mb 31f 26f
6:24pm 8 11 mph 1021.6mb 31f 27f
6:18pm 10 11 mph 1021.8mb 31f 27f
6:12pm 10 13 mph 1022mb 31f 27f
6:06pm 11 15 mph 1022.1mb 31f 27f
6:00pm 13 15 mph 1022.2mb 31f 27f
5:54pm 14 16 mph 1022.5mb 31f 27f
5:48pm 14 17 mph 1022.7mb 31f 28f
5:42pm 16 18 mph 1022.8mb 31f 28f
5:36pm 14 17 mph 1022.8mb 31f 28f
5:30pm 16 18 mph 1023mb 31f 28f
5:24pm 16 20 mph 1023.1mb 31f 28f
5:18pm 14 20 mph 1023.2mb 31f 28f
5:12pm 15 17 mph 1023.1mb 31f 28f
5:06pm 13 20 mph 1023.2mb 31f 28f
5:00pm 14 17 mph 1023.4mb 31f 28f
4:54pm 13 21 mph 1023.5mb 31f 28f
4:48pm 15 20 mph 1023.5mb 31f 28f
4:42pm 14 20 mph 1023.7mb 31f 28f
4:36pm 18 21 mph 1023.7mb 31f 28f
4:30pm 17 21 mph 1023.8mb 31f 28f
4:24pm 16 21 mph 1024mb 31f 28f
4:18pm 16 21 mph 1024mb 31f 28f
4:12pm 20 25 mph 1024.4mb 31f 28f
4:06pm 18 22 mph 1024.5mb 31f 28f
4:00pm 20 22 mph 1024.7mb 31f 28f
3:54pm 18 21 mph 1024.9mb 31f 28f
3:48pm 20 22 mph 1025.2mb 31f 28f
3:42pm 16 20 mph 1025.2mb 31f 28f
3:36pm 17 22 mph 1025.5mb 31f 28f
3:30pm 18 22 mph 1025.6mb 31f 28f
3:24pm 17 21 mph 1025.5mb 31f 28f
3:18pm 17 20 mph 1025.4mb 31f 28f
3:12pm 20 22 mph 1025.4mb 31f 27f
3:06pm 17 20 mph 1025.4mb 31f 27f
3:00pm 17 20 mph 1025.5mb 31f 27f
2:54pm 16 18 mph 1025.6mb 31f 28f
2:48pm 16 18 mph 1025.8mb 31f 28f
2:42pm 15 17 mph 1025.7mb 31f 28f
2:36pm 16 18 mph 1025.9mb 31f 28f
2:30pm 16 17 mph 1025.8mb 31f 28f
2:24pm 17 20 mph 1025.8mb 31f 28f
2:18pm 17 18 mph 1025.9mb 31f 28f
2:12pm 15 18 mph 1025.9mb 31f 28f
2:06pm 17 18 mph 1026mb 31f 28f
2:00pm 16 17 mph 1026.1mb 31f 28f
1:54pm 16 17 mph 1026.4mb 31f 28f
1:48pm 16 17 mph 1026.5mb 31f 28f
1:42pm 15 17 mph 1026.6mb 31f 28f
1:36pm 16 17 mph 1026.7mb 31f 28f
1:30pm 15 17 mph 1026.7mb 31f 28f
1:24pm 17 18 mph 1026.8mb 31f 28f
1:18pm 16 18 mph 1027mb 31f 28f
1:12pm 16 18 mph 1027.3mb 31f 28f
1:06pm 14 15 mph 1027.5mb 31f 28f
1:00pm 15 16 mph 1027.7mb 31f 28f
12:54pm 11 14 mph 1027.9mb 31f 28f
12:48pm 11 13 mph 1028.1mb 31f 28f
12:42pm 9 10 mph 1028.3mb 31f 28f
12:36pm 7 9 mph 1028.4mb 31f 28f
12:30pm 10 11 mph 1028.7mb 31f 28f
12:24pm 5 6 mph 1028.6mb 31f 28f
12:18pm 6 8 mph 1028.8mb 31f 28f
12:12pm 6 7 mph 1028.8mb 31f 27f
12:06pm 3 6 mph 1028.9mb 31f 28f
12:00pm 3 5 mph 1029mb 31f 27f
11:54am 3 6 mph 1029.1mb 31f 27f
11:48am 5 6 mph 1029.2mb 31f 27f
11:42am 3 5 mph 1029.2mb 31f 27f
11:36am 5 6 mph 1029.2mb 31f 27f
11:30am 5 6 mph 1029.1mb 31f -
11:24am 5 6 mph 1029.1mb 31f -
11:18am 5
mph
- - 27f
11:12am 3 5 mph - - 27f
11:06am 5 7 mph - - 27f
11:00am  -  mph 1029.3mb 31f 26f
10:54am  -  mph 1029.2mb 31f 26f
10:48am 7 8 mph - 31f 26f
10:42am 5 6 mph - 31f 26f
10:36am 3 7 mph - 31f 26f
10:30am 6 7 mph - 31f 26f
10:24am 6
mph
- 31f 26f
10:18am  -  mph 1029.7mb 31f 26f
10:12am  -  mph 1030mb 31f 26f
10:06am  -  mph 1029.8mb 31f 26f
10:00am 5 6 mph - - 26f
9:54am 5 6 mph - - 26f
9:48am 6
mph
- - -
9:42am 5
mph
- - -
9:36am 2 3 mph - - -
9:30am  -  mph - - 27f
9:24am  -  mph - - 26f
9:18am 2 3 mph - 30f -
9:12am 3 5 mph - 30f -
9:06am 3 6 mph - 30f -
9:00am  -  mph 1030.4mb - 25f
8:54am  -  mph 1030.2mb - 25f
8:48am 6 7 mph - - 24f
8:42am 3 5 mph - - 25f
8:36am 5 7 mph - - 24f
8:30am  -  mph - 30f -
8:24am  -  mph - 30f -
8:18am 3 8 mph 1030.5mb - 23f
8:12am 7 9 mph 1030.5mb - 23f
8:06am 5 6 mph 1030.5mb - 23f
8:00am 6 8 mph - 30f -
7:54am 6 10 mph - 30f -
7:48am  -  mph 1030.3mb 30f -
7:42am  -  mph 1030.2mb 30f -
7:36am  -  mph 1030.2mb 30f -
7:30am  -  mph 1030mb - 21f
7:24am  -  mph 1029.9mb - 20f
7:18am  -  mph 1029.7mb - 21f
7:12am  -  mph 1029.5mb - 20f
7:06am  -  mph 1029.5mb - 20f
7:00am 7 8 mph 1029.5mb 30f 20f
6:54am 7 9 mph 1029.3mb 30f 19f
6:48am 8 9 mph - 30f -
6:42am 6 8 mph - 30f -
6:36am 6 8 mph - 30f -
6:30am 6 9 mph 1029mb 30f -
6:24am 7 9 mph 1029mb 30f -
6:18am  -  mph 1029mb 30f 20f
6:12am  -  mph 1029.1mb 30f 20f
6:06am  -  mph 1029mb 30f 20f
6:00am  -  mph 1028.9mb 30f 20f
5:54am  -  mph 1029mb 30f 20f
5:48am 7 9 mph - - -
5:42am 7 9 mph - - -
5:36am 7 9 mph - - -
5:30am  -  mph 1028.6mb 30f -
5:24am  -  mph 1028.5mb 30f -
5:18am 8 10 mph - 30f 21f
5:12am 8 10 mph - 30f 21f
5:06am 8 10 mph - 30f 20f
5:00am 8 10 mph 1028.1mb 31f -
4:54am 7 10 mph 1028mb 31f -
4:48am  -  mph 1028.1mb 31f -
4:42am  -  mph 1027.9mb 31f -
4:36am  -  mph 1027.8mb 31f -
4:30am 8 10 mph 1027.8mb - 21f
4:24am 8 10 mph 1027.8mb - 21f
4:18am  -  mph - - 21f
4:12am  -  mph - - 21f
4:06am  -  mph - - 21f
4:00am  -  mph 1027.4mb 31f 21f
3:54am  -  mph 1027.2mb 31f 22f
3:48am 7 9 mph 1027.1mb - 22f
3:42am 7 10 mph 1027.1mb - 22f
3:36am 6 10 mph 1027.1mb - 22f
3:30am 8 11 mph 1027.1mb - 22f
3:24am 8 11 mph 1027mb - 22f
3:18am  -  mph - 31f 22f
3:12am  -  mph - 31f 23f
3:06am  -  mph - 31f 23f
3:00am 7 10 mph 1026.9mb - 23f
2:54am 8 11 mph 1026.8mb - 23f
2:48am 6 10 mph 1026.8mb 31f 23f
2:42am 7 10 mph 1026.8mb 31f 23f
2:36am 8 10 mph 1026.8mb 31f 23f
2:30am 7 11 mph 1026.8mb - 23f
2:24am 7 9 mph 1026.7mb - 23f
2:18am  -  mph - - 23f
2:12am  -  mph - - 24f
2:06am  -  mph - - 24f
2:00am 8 10 mph - - -
1:54am 8 10 mph - - -
1:48am 7 9 mph 1026.6mb - 24f
1:42am 8 9 mph 1026.6mb - 24f
1:36am 7 9 mph 1026.7mb - 24f
1:30am 8 13 mph 1026.6mb - 25f
1:24am 9 11 mph 1026.5mb - 25f
1:18am 8 13 mph - - 25f
1:12am 11 15 mph - - 25f
1:06am 8 11 mph - - 24f
1:00am  -  mph - 31f 25f
12:54am  -  mph - 31f 25f
12:48am  -  mph - 31f 25f
12:42am  -  mph - 31f 25f
12:36am  -  mph - 31f 25f
12:30am  -  mph 1025.7mb - -
12:24am  -  mph 1025.6mb - -
12:18am  -  mph 1025.6mb 31f 26f
12:12am  -  mph 1025.5mb 31f 26f
12:06am  -  mph 1025.3mb 31f 26f
12:00am  -  mph 1025.3mb - -
Mon 03/02 11:54pm  -  mph 1025.3mb - -
11:48pm  -  mph - 31f 26f
11:42pm  -  mph - 31f 26f
11:36pm  -  mph - 31f 26f
11:30pm  -  mph 1024.8mb 31f 26f
11:24pm  -  mph 1024.9mb 31f 27f
11:18pm  -  mph 1025.1mb - 27f
11:12pm  -  mph 1024.9mb - 27f
11:06pm  -  mph 1024.5mb - 27f
11:00pm 8 10 mph 1024.3mb 31f 27f
10:54pm 7 11 mph 1024.4mb 31f 27f
10:48pm  -  mph - 31f -
10:42pm  -  mph - 31f -
10:36pm  -  mph - 31f -
10:30pm 8 14 mph 1024mb - 27f
10:24pm 9 16 mph 1023.7mb - 27f
10:18pm  -  mph - 31f -
10:12pm  -  mph - 31f -
10:06pm  -  mph - 31f -
10:00pm  -  mph 1023.5mb 31f 28f
9:54pm  -  mph 1023.6mb 31f 28f
9:48pm 9 14 mph - 31f -
9:42pm 8 10 mph - 31f -
9:36pm 7 11 mph - 31f -
9:30pm  -  mph - 31f -
9:24pm  -  mph - 31f -
9:18pm  -  mph - 31f -
9:12pm  -  mph - 31f -
9:06pm  -  mph - 31f -
9:00pm 10 16 mph 1022.6mb 31f 29f
8:54pm 8 13 mph 1022.7mb 31f 29f
7:54pm 11 18 mph 1021.9mb 31f -
7:48pm 11 20 mph - 31f -
7:42pm 13 21 mph - 31f -
7:36pm 10 16 mph - 31f -
7:30pm  -  mph 1021.6mb 31f -
7:24pm  -  mph 1021.5mb 31f -
7:18pm  -  mph 1021.3mb - 31f
7:12pm  -  mph 1021.5mb - 30f
7:06pm  -  mph 1021.3mb - 31f
7:00pm 13 21 mph - 31f -
6:54pm 10 21 mph - 31f -
6:48pm 20 26 mph - 31f -
6:42pm 15 24 mph - 31f -
6:36pm 15 34 mph - 31f -
6:30pm 17 30 mph - 31f 31f
6:24pm 15 25 mph - 31f 32f
6:18pm 20 36 mph 1019.7mb 31f 32f
6:12pm 14 22 mph 1019.6mb 31f 32f
6:06pm 14 22 mph 1019.4mb 31f 32f
6:00pm 13 26 mph 1019.1mb 31f 32f
5:54pm 17 24 mph 1018.9mb 31f 33f
5:48pm 18 31 mph 1018.8mb 31f 33f
5:42pm 15 29 mph 1018.6mb 31f 33f
5:36pm 13 16 mph 1018.5mb 31f 33f
5:30pm 13 22 mph 1018.3mb 31f 33f
5:24pm 16 22 mph 1018.2mb 31f 33f
5:18pm 16 22 mph 1018.1mb 31f 33f
5:12pm 16 22 mph 1018mb 31f 33f
5:06pm 18 28 mph 1017.9mb 31f 33f
5:00pm 20 24 mph 1017.7mb 31f 33f
4:54pm 14 18 mph 1017.7mb 31f 34f
4:48pm 13 17 mph 1017.7mb 31f 34f
4:42pm 15 22 mph 1017.6mb 31f 34f
4:36pm 15 22 mph 1017.5mb 31f 34f
4:30pm 16 22 mph 1017.5mb 31f 34f
4:24pm 17 24 mph 1017.4mb 31f 34f
4:18pm 17 29 mph 1017.3mb 31f 34f
4:12pm 20 28 mph 1017.1mb 31f 34f
4:06pm 13 21 mph 1017.1mb 31f 34f
4:00pm 18 29 mph 1017.2mb 31f 35f
3:54pm 16 26 mph 1017.2mb 31f 35f
3:48pm 18 24 mph 1017.2mb 31f 35f
3:42pm 14 26 mph 1017mb 31f 35f
3:36pm 23 34 mph 1017mb 31f 35f
3:30pm 17 24 mph 1017mb 31f 35f
3:24pm 21 31 mph 1016.8mb 31f 35f
3:18pm 21 32 mph 1016.6mb 31f 35f
3:12pm 18 26 mph 1016.5mb 31f 35f
3:06pm 13 24 mph 1016.6mb 31f 35f
3:00pm 20 24 mph 1016.4mb 31f 34f
2:54pm 21 29 mph 1016.3mb 31f 34f
2:48pm 24 36 mph 1016.2mb 31f 34f
2:42pm 24 31 mph 1016.1mb 31f 34f
2:36pm 18 31 mph 1016.2mb 31f 34f
2:30pm 23 30 mph 1016mb 31f 34f
2:24pm 20 26 mph 1015.9mb 31f 34f
2:18pm 21 29 mph 1015.9mb 31f 34f
2:12pm 23 34 mph 1015.8mb 31f 34f
2:06pm 18 26 mph 1015.9mb 31f 34f
2:00pm 16 26 mph 1016mb 31f 34f
1:54pm 20 31 mph 1015.9mb 31f 34f
1:48pm 17 33 mph 1015.9mb 31f 34f
1:42pm 18 28 mph 1015.9mb 31f 35f
1:36pm 20 28 mph 1015.8mb 31f 35f
1:30pm 20 25 mph 1015.6mb 31f 35f
1:24pm 15 26 mph 1015.8mb 31f 35f
1:18pm 18 25 mph 1015.8mb 31f 35f
1:12pm 22 29 mph 1016mb 31f 35f
1:06pm 17 32 mph 1015.9mb 31f 35f